Time;durP1;ratioP1;P1;durP2;ratioP2;P2;SDS_P1;SDS_P2;PMS_P1;PMS_P2;Temp;Humidity;BMP_temperature;BMP_pressure;BME280_temperature;BME280_humidity;BME280_pressure;Samples;Min_cycle;Max_cycle;Signal;HPM_P1;HPM_P2
2024/03/16 00:01:50;;;;;;;3.40;3.10;;;13.40;99.90;;;;;;5118141;27;20448;-64
2024/03/16 00:04:16;;;;;;;5.33;3.37;;;13.40;99.90;;;;;;5118323;27;20483;-64
2024/03/16 00:06:43;;;;;;;3.10;2.90;;;13.40;99.90;;;;;;5118206;27;20532;-64
2024/03/16 00:09:10;;;;;;;3.90;3.13;;;13.40;99.90;;;;;;5117304;27;20504;-64
2024/03/16 00:11:37;;;;;;;3.60;3.30;;;13.30;99.90;;;;;;5118199;27;20473;-64
2024/03/16 00:14:04;;;;;;;3.03;2.80;;;13.30;99.90;;;;;;5118136;27;20456;-63
2024/03/16 00:16:32;;;;;;;2.87;2.67;;;13.30;99.90;;;;;;5117731;27;20945;-64
2024/03/16 00:18:58;;;;;;;3.00;2.80;;;13.30;99.90;;;;;;5117962;27;20949;-63
2024/03/16 00:21:26;;;;;;;3.17;2.90;;;13.30;99.90;;;;;;5117904;27;20477;-64
2024/03/16 00:23:54;;;;;;;4.53;2.97;;;13.30;99.90;;;;;;5117968;27;20441;-64
2024/03/16 00:26:20;;;;;;;3.10;2.90;;;13.30;99.90;;;;;;5117954;27;20452;-64
2024/03/16 00:28:47;;;;;;;4.13;2.80;;;13.30;99.90;;;;;;5117533;27;20478;-64
2024/03/16 00:31:15;;;;;;;3.37;3.17;;;13.30;99.90;;;;;;5117896;27;20436;-63
2024/03/16 00:33:41;;;;;;;3.50;3.10;;;13.30;99.90;;;;;;5117806;27;20532;-64
2024/03/16 00:36:08;;;;;;;5.00;3.20;;;13.20;99.90;;;;;;5117645;27;20528;-64
2024/03/16 00:38:35;;;;;;;2.40;2.20;;;13.20;99.90;;;;;;5117548;27;20532;-64
2024/03/16 00:41:02;;;;;;;3.60;3.20;;;13.20;99.90;;;;;;5117485;27;20506;-64
2024/03/16 00:43:29;;;;;;;2.90;2.70;;;13.10;99.90;;;;;;5117467;27;20820;-63
2024/03/16 00:45:56;;;;;;;3.13;2.93;;;13.10;99.90;;;;;;5117011;27;20987;-64
2024/03/16 00:48:22;;;;;;;3.53;3.20;;;13.10;99.90;;;;;;5117322;27;20916;-63
2024/03/16 00:50:49;;;;;;;3.10;2.90;;;13.10;99.90;;;;;;5117306;27;20494;-64
2024/03/16 00:53:17;;;;;;;3.03;2.83;;;13.10;99.90;;;;;;5117203;27;20533;-64
2024/03/16 00:55:44;;;;;;;3.93;3.10;;;13.10;99.90;;;;;;5117392;27;20450;-64
2024/03/16 00:58:11;;;;;;;3.40;3.20;;;13.00;99.90;;;;;;5116984;27;20450;-63
2024/03/16 01:00:38;;;;;;;2.90;2.70;;;13.00;99.90;;;;;;5117158;27;20470;-64
2024/03/16 01:03:05;;;;;;;2.80;2.60;;;13.00;99.90;;;;;;5117060;27;20459;-64
2024/03/16 01:05:32;;;;;;;3.00;2.80;;;13.00;99.90;;;;;;5116983;27;20447;-64
2024/03/16 01:07:58;;;;;;;3.40;2.90;;;13.00;99.90;;;;;;5116832;27;20560;-64
2024/03/16 01:10:25;;;;;;;3.00;2.80;;;13.00;99.90;;;;;;5116774;27;20999;-64
2024/03/16 01:12:52;;;;;;;2.80;2.57;;;13.10;99.90;;;;;;5116623;27;20551;-64
2024/03/16 01:15:20;;;;;;;3.57;3.30;;;13.10;99.90;;;;;;5116940;27;20878;-64
2024/03/16 01:17:47;;;;;;;2.97;2.77;;;13.10;99.90;;;;;;5117021;27;20788;-63
2024/03/16 01:20:15;;;;;;;3.00;2.80;;;13.00;99.90;;;;;;5116650;27;20441;-64
2024/03/16 01:22:42;;;;;;;2.40;2.30;;;13.00;99.90;;;;;;5116818;27;20468;-63
2024/03/16 01:25:09;;;;;;;2.73;2.53;;;13.00;99.90;;;;;;5116438;27;20445;-64
2024/03/16 01:27:36;;;;;;;2.67;2.50;;;13.10;99.90;;;;;;5116673;27;20444;-63
2024/03/16 01:30:03;;;;;;;2.63;2.43;;;13.10;99.90;;;;;;5116451;27;20451;-64
2024/03/16 01:32:30;;;;;;;2.60;2.43;;;13.10;99.90;;;;;;5116504;27;20921;-64
2024/03/16 01:34:56;;;;;;;2.73;2.53;;;13.10;99.90;;;;;;5116435;27;20864;-64
2024/03/16 01:37:23;;;;;;;2.60;2.50;;;13.10;99.90;;;;;;5116350;27;20803;-64
2024/03/16 01:39:50;;;;;;;3.10;2.80;;;13.10;99.90;;;;;;5116231;27;20907;-64
2024/03/16 01:42:16;;;;;;;2.70;2.50;;;13.10;99.90;;;;;;5116417;27;20441;-64
2024/03/16 01:44:51;;;;;;;2.60;2.40;;;13.00;99.90;;;;;;5116346;27;20528;-64
2024/03/16 01:47:17;;;;;;;3.23;3.00;;;13.00;99.90;;;;;;5116783;27;20499;-64
2024/03/16 01:49:44;;;;;;;2.87;2.60;;;13.00;99.90;;;;;;5116034;27;20484;-63
2024/03/16 01:52:11;;;;;;;3.40;3.10;;;13.00;99.90;;;;;;5099346;27;20445;-64
2024/03/16 01:54:37;;;;;;;2.87;2.67;;;13.00;99.90;;;;;;5116269;27;20532;-64
2024/03/16 01:57:04;;;;;;;5.20;3.20;;;13.00;99.90;;;;;;5116054;27;20543;-64
2024/03/16 01:59:31;;;;;;;3.50;3.30;;;12.90;99.90;;;;;;5116147;27;20446;-63
2024/03/16 02:01:58;;;;;;;4.93;3.30;;;12.90;99.90;;;;;;5116041;27;20447;-64
2024/03/16 02:04:24;;;;;;;3.53;3.23;;;13.00;99.90;;;;;;5115922;27;20437;-64
2024/03/16 02:06:52;;;;;;;3.47;3.27;;;13.00;99.90;;;;;;5115917;27;20572;-64
2024/03/16 02:09:19;;;;;;;3.90;3.60;;;13.00;99.90;;;;;;5116079;28;20487;-64
2024/03/16 02:11:46;;;;;;;3.77;3.50;;;13.00;99.90;;;;;;5116047;28;20437;-63
2024/03/16 02:14:13;;;;;;;3.57;3.27;;;12.90;99.90;;;;;;5115840;28;20531;-64
2024/03/16 02:16:39;;;;;;;3.83;3.43;;;13.00;99.90;;;;;;5115772;28;21000;-64
2024/03/16 02:19:07;;;;;;;4.10;3.80;;;13.00;99.90;;;;;;5115810;28;20950;-63
2024/03/16 02:21:34;;;;;;;3.43;3.23;;;13.00;99.90;;;;;;5115801;28;20523;-63
2024/03/16 02:24:01;;;;;;;4.10;3.80;;;13.00;99.90;;;;;;5115798;28;20928;-64
2024/03/16 02:26:27;;;;;;;3.80;3.50;;;13.00;99.90;;;;;;5115857;28;20978;-64
2024/03/16 02:28:54;;;;;;;3.50;3.20;;;13.00;99.90;;;;;;5115642;28;20877;-64
2024/03/16 02:31:21;;;;;;;3.23;3.03;;;13.00;99.90;;;;;;5115669;28;20564;-64
2024/03/16 02:33:47;;;;;;;3.57;3.37;;;13.00;99.90;;;;;;5119007;27;20449;-64
2024/03/16 02:36:15;;;;;;;3.63;3.43;;;13.00;99.90;;;;;;5120011;27;20443;-63
2024/03/16 02:38:43;;;;;;;3.33;3.13;;;13.00;99.90;;;;;;5120035;27;20457;-64
2024/03/16 02:41:10;;;;;;;3.73;3.43;;;13.00;99.90;;;;;;5120056;27;20437;-63
2024/03/16 02:43:36;;;;;;;3.30;3.10;;;13.00;99.90;;;;;;5119741;27;20441;-64
2024/03/16 02:46:05;;;;;;;3.30;3.10;;;13.00;99.90;;;;;;5119467;27;20921;-63
2024/03/16 02:48:31;;;;;;;3.20;2.90;;;13.00;99.90;;;;;;5119698;27;20482;-63
2024/03/16 02:50:58;;;;;;;3.60;3.40;;;13.00;99.90;;;;;;5119728;27;20670;-64
2024/03/16 02:53:25;;;;;;;3.60;3.40;;;13.00;99.90;;;;;;5119585;27;20442;-64
2024/03/16 02:55:51;;;;;;;4.33;4.03;;;12.90;99.90;;;;;;5119569;27;20441;-64
2024/03/16 02:58:18;;;;;;;4.33;2.80;;;13.00;99.90;;;;;;5119378;27;20532;-64
2024/03/16 03:00:45;;;;;;;3.70;3.50;;;13.00;99.90;;;;;;5119353;27;20448;-64
2024/03/16 03:03:12;;;;;;;3.93;3.30;;;13.00;99.90;;;;;;5119212;27;20526;-64
2024/03/16 03:05:39;;;;;;;4.23;3.10;;;13.00;99.90;;;;;;5119446;27;20535;-64
2024/03/16 03:08:06;;;;;;;3.17;2.97;;;13.00;99.90;;;;;;5119198;27;20436;-63
2024/03/16 03:10:33;;;;;;;3.63;3.33;;;13.10;99.90;;;;;;5119243;27;20523;-63
2024/03/16 03:13:01;;;;;;;3.73;3.43;;;13.00;99.90;;;;;;5119223;27;20447;-63
2024/03/16 03:15:28;;;;;;;3.40;3.10;;;13.00;99.90;;;;;;5119141;27;20475;-63
2024/03/16 03:17:54;;;;;;;3.07;2.87;;;12.90;99.90;;;;;;5119201;27;20444;-63
2024/03/16 03:20:23;;;;;;;3.03;2.80;;;12.90;99.90;;;;;;5119083;27;20448;-63
2024/03/16 03:22:50;;;;;;;3.27;3.07;;;12.90;99.90;;;;;;5119404;27;20442;-63
2024/03/16 03:25:18;;;;;;;4.93;3.33;;;12.90;99.90;;;;;;5118958;27;20437;-63
2024/03/16 03:27:45;;;;;;;3.57;3.37;;;12.80;99.90;;;;;;5119046;27;20523;-63
2024/03/16 03:30:12;;;;;;;4.33;3.47;;;12.80;99.90;;;;;;5118623;27;21042;-63
2024/03/16 03:32:38;;;;;;;2.70;2.50;;;12.80;99.90;;;;;;5118932;27;20528;-63
2024/03/16 03:35:06;;;;;;;3.97;3.53;;;12.80;99.90;;;;;;5118801;27;20441;-63
2024/03/16 03:37:32;;;;;;;2.73;2.63;;;12.80;99.90;;;;;;5118771;27;20442;-63
2024/03/16 03:39:59;;;;;;;2.83;2.63;;;12.70;99.90;;;;;;5118637;27;20445;-64
2024/03/16 03:42:29;;;;;;;2.97;2.77;;;12.70;99.90;;;;;;5118504;27;20443;-63
2024/03/16 03:45:10;;;;;;;3.20;3.00;;;12.70;99.90;;;;;;5117928;27;20432;-63
2024/03/16 03:47:49;;;;;;;4.27;3.10;;;12.70;99.90;;;;;;5120905;27;20447;-63
2024/03/16 03:50:26;;;;;;;3.27;2.93;;;12.60;99.90;;;;;;5120279;27;20483;-63
2024/03/16 03:52:53;;;;;;;2.83;2.63;;;12.60;99.90;;;;;;5119764;27;20540;-63
2024/03/16 03:55:20;;;;;;;3.43;2.40;;;12.70;99.90;;;;;;5118642;27;20437;-63
2024/03/16 03:57:46;;;;;;;2.83;2.63;;;12.70;99.90;;;;;;5118389;27;20539;-63
2024/03/16 04:00:13;;;;;;;2.53;2.43;;;12.70;99.90;;;;;;5118235;27;20484;-63
2024/03/16 04:02:40;;;;;;;4.00;2.97;;;12.70;99.90;;;;;;5118334;27;20260;-63
2024/03/16 04:05:06;;;;;;;2.50;2.37;;;12.80;99.90;;;;;;5118147;27;20450;-63
2024/03/16 04:07:33;;;;;;;2.83;2.63;;;12.80;99.90;;;;;;5118054;27;20491;-63
2024/03/16 04:10:00;;;;;;;2.83;2.63;;;12.80;99.90;;;;;;5117850;27;20476;-63
2024/03/16 04:12:26;;;;;;;2.73;2.50;;;12.80;99.90;;;;;;5118117;27;20441;-63
2024/03/16 04:14:53;;;;;;;2.33;2.13;;;12.80;99.90;;;;;;5118014;27;20540;-63
2024/03/16 04:17:20;;;;;;;3.73;2.50;;;12.80;99.90;;;;;;5117970;27;20570;-63
2024/03/16 04:19:47;;;;;;;3.47;2.33;;;12.80;99.90;;;;;;5117838;27;20537;-63
2024/03/16 04:22:14;;;;;;;2.60;2.40;;;12.80;99.90;;;;;;5117872;27;20494;-63
2024/03/16 04:24:40;;;;;;;3.00;2.73;;;12.80;99.90;;;;;;5117955;27;20479;-63
2024/03/16 04:27:07;;;;;;;2.63;2.43;;;12.80;99.90;;;;;;5117870;27;20999;-63
2024/03/16 04:29:34;;;;;;;2.97;2.77;;;12.90;99.90;;;;;;5117676;27;20872;-63
2024/03/16 04:32:00;;;;;;;2.67;2.53;;;12.90;99.90;;;;;;5117681;27;20519;-63
2024/03/16 04:34:27;;;;;;;2.57;2.47;;;12.90;99.90;;;;;;5117515;27;20543;-63
2024/03/16 04:36:53;;;;;;;2.60;2.50;;;12.90;99.90;;;;;;5117411;27;20444;-63
2024/03/16 04:39:21;;;;;;;2.80;2.60;;;12.90;99.90;;;;;;5117586;27;20531;-63
2024/03/16 04:41:48;;;;;;;3.30;3.10;;;12.90;99.90;;;;;;5117577;27;20441;-63
2024/03/16 04:44:15;;;;;;;3.20;2.50;;;12.90;99.90;;;;;;5117290;27;20448;-63
2024/03/16 04:46:41;;;;;;;3.70;2.47;;;12.90;99.90;;;;;;5117064;27;20553;-63
2024/03/16 04:49:08;;;;;;;2.60;2.50;;;13.00;99.90;;;;;;5117056;27;20527;-63
2024/03/16 04:51:35;;;;;;;2.90;2.60;;;13.10;99.90;;;;;;5117083;27;20447;-63
2024/03/16 04:54:02;;;;;;;2.47;2.37;;;13.00;99.90;;;;;;5117280;27;20447;-63
2024/03/16 04:56:28;;;;;;;3.17;2.70;;;13.00;99.90;;;;;;5116882;27;20465;-64
2024/03/16 04:58:55;;;;;;;2.90;2.70;;;13.00;99.90;;;;;;5117080;27;20501;-63
2024/03/16 05:01:22;;;;;;;2.67;2.47;;;12.90;99.90;;;;;;5117030;27;20442;-64
2024/03/16 05:03:48;;;;;;;3.30;2.70;;;12.90;99.90;;;;;;5116911;27;20524;-63
2024/03/16 05:06:15;;;;;;;3.37;3.10;;;12.90;99.90;;;;;;5116801;27;20436;-63
2024/03/16 05:08:42;;;;;;;3.53;3.00;;;12.90;99.90;;;;;;5116978;27;20536;-64
2024/03/16 05:11:09;;;;;;;2.50;2.40;;;12.80;99.90;;;;;;5116918;27;20804;-63
2024/03/16 05:13:36;;;;;;;2.73;2.53;;;12.80;99.90;;;;;;5116944;27;20540;-64
2024/03/16 05:16:06;;;;;;;2.60;2.40;;;12.70;99.90;;;;;;5116713;27;20536;-64
2024/03/16 05:18:33;;;;;;;2.23;2.13;;;12.70;99.90;;;;;;5116994;27;20437;-63
2024/03/16 05:21:00;;;;;;;3.70;1.73;;;12.60;99.90;;;;;;5116796;27;20445;-63
2024/03/16 05:23:27;;;;;;;2.03;1.93;;;12.60;99.90;;;;;;5116722;27;20437;-63
2024/03/16 05:25:53;;;;;;;2.70;1.80;;;12.50;99.90;;;;;;5116691;27;20535;-63
2024/03/16 05:28:20;;;;;;;2.37;2.17;;;12.50;99.90;;;;;;5116493;27;20536;-64
2024/03/16 05:30:47;;;;;;;2.37;2.17;;;12.50;99.90;;;;;;5116290;27;20480;-64
2024/03/16 05:33:15;;;;;;;3.03;2.83;;;12.50;99.90;;;;;;5116555;27;20437;-63
2024/03/16 05:35:41;;;;;;;1.97;1.87;;;12.50;99.90;;;;;;5116511;27;20937;-63
2024/03/16 05:38:08;;;;;;;2.13;1.77;;;12.50;99.90;;;;;;5116481;27;20803;-63
2024/03/16 05:40:35;;;;;;;2.90;2.60;;;12.60;99.90;;;;;;5116388;27;20443;-63
2024/03/16 05:43:02;;;;;;;1.97;1.73;;;12.60;99.90;;;;;;5116376;27;20445;-63
2024/03/16 05:45:29;;;;;;;2.13;1.80;;;12.60;99.90;;;;;;5116023;27;20895;-64
2024/03/16 05:47:55;;;;;;;2.47;1.97;;;12.60;99.90;;;;;;5116434;27;20551;-64
2024/03/16 05:50:22;;;;;;;2.80;1.73;;;12.70;99.90;;;;;;5116276;27;20501;-64
2024/03/16 05:52:49;;;;;;;1.80;1.70;;;12.70;99.90;;;;;;5116221;27;20532;-64
2024/03/16 05:55:15;;;;;;;1.63;1.50;;;12.80;99.90;;;;;;5116099;27;20440;-63
2024/03/16 05:57:42;;;;;;;1.77;1.67;;;13.00;99.90;;;;;;5116055;27;20437;-64
2024/03/16 06:00:14;;;;;;;1.40;1.30;;;13.10;99.90;;;;;;5115916;27;20447;-64
2024/03/16 06:02:41;;;;;;;1.83;1.70;;;13.30;99.90;;;;;;5116968;27;20444;-63
2024/03/16 06:05:07;;;;;;;3.77;1.73;;;13.50;99.90;;;;;;5116003;27;20469;-64
2024/03/16 06:07:34;;;;;;;1.77;1.67;;;13.60;99.90;;;;;;5115373;27;20451;-64
2024/03/16 06:10:01;;;;;;;1.67;1.57;;;13.50;99.90;;;;;;5115803;27;20552;-64
2024/03/16 06:12:30;;;;;;;1.33;1.23;;;13.40;99.90;;;;;;5115852;28;20868;-64
2024/03/16 06:14:57;;;;;;;2.00;1.50;;;13.50;99.90;;;;;;5116190;28;20461;-64
2024/03/16 06:17:24;;;;;;;1.70;1.60;;;13.70;99.90;;;;;;5115960;28;20539;-64
2024/03/16 06:19:52;;;;;;;2.10;1.60;;;13.90;99.90;;;;;;5115669;28;20536;-64
2024/03/16 06:22:19;;;;;;;1.50;1.40;;;14.20;99.90;;;;;;5116017;28;20515;-64
2024/03/16 06:24:47;;;;;;;1.33;1.23;;;14.60;99.90;;;;;;5115821;28;20446;-64
2024/03/16 06:27:18;;;;;;;1.97;1.40;;;15.00;99.90;;;;;;5115842;28;20793;-64
2024/03/16 06:29:51;;;;;;;1.60;1.33;;;14.80;99.90;;;;;;5116486;28;20535;-64
2024/03/16 06:32:20;;;;;;;1.47;1.30;;;14.60;99.90;;;;;;5116729;28;20945;-64
2024/03/16 06:34:47;;;;;;;1.33;1.23;;;14.40;99.90;;;;;;5115967;28;20502;-64
2024/03/16 06:37:13;;;;;;;1.30;1.20;;;14.30;99.90;;;;;;5115645;28;20480;-64
2024/03/16 06:39:40;;;;;;;1.60;1.30;;;14.30;99.90;;;;;;5115555;28;20537;-64
2024/03/16 06:42:07;;;;;;;3.93;1.50;;;14.30;99.90;;;;;;5115713;28;20528;-64
2024/03/16 06:44:33;;;;;;;1.80;1.70;;;14.20;99.90;;;;;;5115676;28;20508;-64
2024/03/16 06:47:00;;;;;;;2.17;1.30;;;14.00;99.90;;;;;;5115258;28;20504;-64
2024/03/16 06:49:27;;;;;;;1.70;1.40;;;13.90;99.90;;;;;;5115398;28;20600;-64
2024/03/16 06:51:54;;;;;;;1.30;1.20;;;14.10;99.90;;;;;;5115504;28;20444;-64
2024/03/16 06:54:20;;;;;;;1.37;1.27;;;14.30;99.90;;;;;;5115346;28;20446;-64
2024/03/16 06:56:47;;;;;;;1.37;1.27;;;14.50;99.90;;;;;;5115628;28;20448;-64
2024/03/16 06:59:14;;;;;;;7.83;1.20;;;14.50;99.90;;;;;;5115393;28;20955;-63
2024/03/16 07:01:40;;;;;;;1.90;1.33;;;14.50;99.90;;;;;;5115437;28;20849;-64
2024/03/16 07:04:07;;;;;;;1.53;1.10;;;14.40;99.90;;;;;;5115338;28;20522;-64
2024/03/16 07:06:34;;;;;;;2.40;1.10;;;14.30;99.90;;;;;;5115343;28;20855;-64
2024/03/16 07:09:03;;;;;;;2.90;1.40;;;14.30;99.90;;;;;;5115207;28;20537;-64
2024/03/16 07:11:30;;;;;;;1.70;1.37;;;14.10;99.90;;;;;;5115664;28;20809;-64
2024/03/16 07:13:57;;;;;;;2.60;1.20;;;14.20;99.90;;;;;;5115310;28;20443;-64
2024/03/16 07:16:24;;;;;;;3.03;1.70;;;14.00;99.90;;;;;;5115425;28;20473;-64
2024/03/16 07:18:51;;;;;;;1.50;1.10;;;13.90;99.90;;;;;;5116786;27;20464;-64
2024/03/16 07:21:19;;;;;;;2.23;1.60;;;13.80;99.90;;;;;;5118881;27;20529;-67
2024/03/16 07:23:47;;;;;;;3.70;1.80;;;13.70;99.90;;;;;;5119219;27;20529;-64
2024/03/16 07:26:14;;;;;;;5.27;1.60;;;13.70;99.90;;;;;;5118980;27;20987;-64
2024/03/16 07:28:41;;;;;;;3.87;1.53;;;13.70;99.90;;;;;;5118987;27;20444;-64
2024/03/16 07:31:07;;;;;;;5.07;1.23;;;13.60;99.90;;;;;;5118509;27;20817;-64
2024/03/16 07:33:35;;;;;;;1.87;1.20;;;13.70;99.90;;;;;;5118736;27;20536;-64
2024/03/16 07:36:04;;;;;;;3.40;1.60;;;13.60;99.90;;;;;;5118553;27;20449;-64
2024/03/16 07:38:30;;;;;;;1.50;1.30;;;13.50;99.90;;;;;;5118931;27;20445;-64
2024/03/16 07:40:57;;;;;;;3.13;1.43;;;13.50;99.90;;;;;;5118673;27;20878;-64
2024/03/16 07:43:24;;;;;;;3.00;1.57;;;13.60;99.90;;;;;;5118649;27;20439;-64
2024/03/16 07:45:51;;;;;;;1.80;1.17;;;13.60;99.90;;;;;;5118256;27;20564;-64
2024/03/16 07:48:17;;;;;;;2.80;1.30;;;13.70;99.90;;;;;;5118416;27;20835;-64
2024/03/16 07:50:44;;;;;;;2.40;1.00;;;13.70;99.90;;;;;;5118125;27;20482;-64
2024/03/16 07:53:11;;;;;;;6.70;1.50;;;13.60;99.90;;;;;;5118567;27;20844;-64
2024/03/16 07:55:38;;;;;;;2.77;1.27;;;13.60;99.90;;;;;;5118417;27;20882;-64
2024/03/16 07:58:05;;;;;;;2.03;1.60;;;13.50;99.90;;;;;;5118314;27;20478;-64
2024/03/16 08:00:32;;;;;;;2.60;1.77;;;13.50;99.90;;;;;;5118217;27;20868;-64
2024/03/16 08:03:00;;;;;;;3.53;1.80;;;13.50;99.90;;;;;;5118176;27;20438;-64
2024/03/16 08:05:27;;;;;;;3.00;1.50;;;13.60;99.90;;;;;;5118561;27;20503;-64
2024/03/16 08:07:53;;;;;;;1.83;1.30;;;13.50;99.90;;;;;;5118083;27;20495;-64
2024/03/16 08:10:20;;;;;;;2.60;1.40;;;13.50;99.90;;;;;;5118029;27;20483;-63
2024/03/16 08:12:47;;;;;;;1.43;1.30;;;13.60;99.90;;;;;;5117957;27;20528;-64
2024/03/16 08:15:14;;;;;;;1.67;1.57;;;13.70;99.90;;;;;;5117923;27;20440;-64
2024/03/16 08:17:40;;;;;;;1.97;1.10;;;13.80;99.90;;;;;;5117747;27;20448;-64
2024/03/16 08:20:09;;;;;;;2.20;1.53;;;13.80;99.90;;;;;;5117995;27;20531;-64
2024/03/16 08:22:35;;;;;;;3.80;1.20;;;13.80;99.90;;;;;;5117984;27;20845;-64
2024/03/16 08:25:02;;;;;;;3.57;1.37;;;13.80;99.90;;;;;;5117716;27;20475;-64
2024/03/16 08:27:29;;;;;;;4.30;1.90;;;13.80;99.90;;;;;;5117496;27;20438;-64
2024/03/16 08:29:56;;;;;;;2.40;1.57;;;13.80;99.90;;;;;;5116854;27;20892;-64
2024/03/16 08:32:23;;;;;;;1.40;1.30;;;13.70;99.90;;;;;;5117661;27;20441;-64
2024/03/16 08:34:50;;;;;;;4.80;1.50;;;13.50;99.90;;;;;;5117744;27;20445;-64
2024/03/16 08:37:16;;;;;;;7.43;2.47;;;13.50;99.90;;;;;;5117548;27;20542;-64
2024/03/16 08:39:43;;;;;;;3.70;1.40;;;13.50;99.90;;;;;;5117386;27;21000;-64
2024/03/16 08:42:12;;;;;;;3.37;1.73;;;13.60;99.90;;;;;;5117349;27;20957;-64
2024/03/16 08:44:39;;;;;;;4.90;1.60;;;13.60;99.90;;;;;;5117524;27;20487;-63
2024/03/16 08:47:06;;;;;;;2.40;1.63;;;13.60;99.90;;;;;;5116981;27;20464;-63
2024/03/16 08:49:34;;;;;;;1.53;1.13;;;13.60;99.90;;;;;;5117341;27;20873;-63
2024/03/16 08:52:00;;;;;;;1.93;1.40;;;13.60;99.90;;;;;;5117429;27;20479;-63
2024/03/16 08:54:29;;;;;;;5.33;1.40;;;13.40;99.90;;;;;;5117203;27;20445;-63
2024/03/16 08:56:56;;;;;;;1.80;1.33;;;13.50;99.90;;;;;;5117380;27;20457;-64
2024/03/16 08:59:23;;;;;;;4.63;1.97;;;13.60;99.90;;;;;;5116860;27;20531;-64
2024/03/16 09:01:49;;;;;;;3.53;1.57;;;13.60;99.90;;;;;;5117102;27;20445;-64
2024/03/16 09:04:16;;;;;;;2.60;1.40;;;13.70;99.90;;;;;;5117015;27;20547;-64
2024/03/16 09:06:43;;;;;;;1.40;1.23;;;13.70;99.90;;;;;;5116857;27;20996;-64
2024/03/16 09:09:11;;;;;;;1.67;1.57;;;13.70;99.90;;;;;;5116883;27;20449;-64
2024/03/16 09:11:38;;;;;;;2.60;2.00;;;13.70;99.90;;;;;;5116878;27;20976;-64
2024/03/16 09:14:05;;;;;;;1.63;1.50;;;13.50;99.90;;;;;;5117049;27;20457;-64
2024/03/16 09:16:32;;;;;;;3.03;1.63;;;13.40;99.90;;;;;;5116911;27;20450;-64
2024/03/16 09:18:59;;;;;;;2.00;1.80;;;13.40;99.90;;;;;;5116714;27;20436;-64
2024/03/16 09:21:26;;;;;;;2.77;2.57;;;13.40;99.90;;;;;;5116677;27;20872;-64
2024/03/16 09:23:52;;;;;;;3.87;1.97;;;13.50;99.90;;;;;;5116597;27;20527;-64
2024/03/16 09:26:19;;;;;;;2.77;2.57;;;13.60;99.90;;;;;;5116425;27;20444;-64
2024/03/16 09:28:46;;;;;;;2.87;2.10;;;13.50;99.90;;;;;;5116587;27;20447;-64
2024/03/16 09:31:12;;;;;;;2.23;2.10;;;13.50;99.90;;;;;;5116457;27;20487;-64
2024/03/16 09:33:39;;;;;;;2.80;2.23;;;13.60;99.90;;;;;;5116251;27;20940;-64
2024/03/16 09:36:06;;;;;;;1.93;1.83;;;13.70;99.90;;;;;;5116313;27;20878;-63
2024/03/16 09:38:32;;;;;;;2.50;2.30;;;13.60;99.90;;;;;;5116405;27;20455;-63
2024/03/16 09:40:59;;;;;;;2.60;2.40;;;13.70;99.90;;;;;;5115991;27;20916;-64
2024/03/16 09:43:26;;;;;;;2.73;2.53;;;13.90;99.90;;;;;;5115512;27;20187;-64
2024/03/16 09:45:52;;;;;;;2.37;2.10;;;13.80;99.90;;;;;;5116162;27;20476;-64
2024/03/16 09:48:18;;;;;;;3.80;3.20;;;13.90;99.90;;;;;;5116155;27;20803;-64
2024/03/16 09:50:47;;;;;;;2.20;2.00;;;14.00;99.90;;;;;;5116030;27;20569;-64
2024/03/16 09:53:15;;;;;;;2.30;2.10;;;14.00;99.90;;;;;;5116459;27;20280;-64
2024/03/16 09:55:42;;;;;;;2.50;2.00;;;14.00;99.90;;;;;;5116063;27;21027;-64
2024/03/16 09:58:08;;;;;;;3.87;1.80;;;14.30;99.90;;;;;;5116167;27;20444;-64
2024/03/16 10:00:36;;;;;;;3.80;2.03;;;14.40;99.90;;;;;;5116073;27;20543;-64
2024/03/16 10:03:03;;;;;;;2.10;2.00;;;14.60;99.90;;;;;;5115965;27;20933;-64
2024/03/16 10:05:30;;;;;;;2.60;1.80;;;14.50;99.90;;;;;;5115921;27;20444;-64
2024/03/16 10:07:57;;;;;;;1.97;1.77;;;14.60;99.90;;;;;;5115857;27;20455;-64
2024/03/16 10:10:24;;;;;;;2.27;1.80;;;14.60;99.90;;;;;;5115947;27;20512;-64
2024/03/16 10:12:51;;;;;;;2.73;2.50;;;14.70;99.90;;;;;;5115855;27;20441;-64
2024/03/16 10:15:19;;;;;;;4.17;2.27;;;14.70;99.90;;;;;;5115832;28;20474;-64
2024/03/16 10:17:46;;;;;;;3.30;2.07;;;14.60;99.90;;;;;;5115950;27;20497;-64
2024/03/16 10:20:16;;;;;;;2.40;2.20;;;14.80;99.90;;;;;;5115702;28;20473;-64
2024/03/16 10:22:45;;;;;;;2.60;2.40;;;14.90;99.90;;;;;;5116243;28;20443;-64
2024/03/16 10:25:12;;;;;;;3.07;1.97;;;15.10;99.90;;;;;;5115999;28;20832;-64
2024/03/16 10:27:39;;;;;;;3.70;2.10;;;15.30;99.90;;;;;;5115792;28;20468;-64
2024/03/16 10:30:07;;;;;;;3.43;2.07;;;15.40;99.90;;;;;;5115848;28;20455;-64
2024/03/16 10:32:33;;;;;;;4.23;2.33;;;15.50;99.90;;;;;;5115547;28;20484;-64
2024/03/16 10:35:05;;;;;;;3.20;2.30;;;15.70;99.90;;;;;;5115434;28;20437;-64
2024/03/16 10:37:32;;;;;;;2.67;2.47;;;15.80;99.90;;;;;;5116414;28;20455;-64
2024/03/16 10:40:00;;;;;;;4.33;2.10;;;16.00;99.90;;;;;;5115638;28;20936;-64
2024/03/16 10:42:26;;;;;;;1.90;1.80;;;15.90;99.90;;;;;;5115520;28;20953;-63
2024/03/16 10:44:53;;;;;;;3.53;2.57;;;15.80;99.90;;;;;;5115523;28;20439;-64
2024/03/16 10:47:20;;;;;;;3.23;2.13;;;15.80;99.90;;;;;;5115271;28;20472;-64
2024/03/16 10:49:49;;;;;;;2.90;2.20;;;15.80;99.90;;;;;;5115308;28;20443;-64
2024/03/16 10:52:15;;;;;;;5.73;2.30;;;15.90;99.90;;;;;;5115785;28;21014;-64
2024/03/16 10:54:42;;;;;;;2.40;2.20;;;15.80;99.90;;;;;;5118741;27;20438;-64
2024/03/16 10:57:09;;;;;;;2.13;2.00;;;15.70;99.90;;;;;;5119510;27;20478;-64
2024/03/16 10:59:41;;;;;;;2.60;2.40;;;15.60;99.90;;;;;;5119390;27;20436;-64
2024/03/16 11:02:12;;;;;;;5.30;3.93;;;15.40;99.90;;;;;;5120195;27;20483;-64
2024/03/16 11:04:51;;;;;;;9.07;7.60;;;15.20;99.90;;;;;;5119520;27;20939;-64
2024/03/16 11:07:18;;;;;;;6.20;5.23;;;15.10;99.90;;;;;;5119560;27;20455;-64
2024/03/16 11:09:45;;;;;;;4.03;3.70;;;15.10;99.90;;;;;;5119252;27;20438;-64
2024/03/16 11:12:30;;;;;;;5.70;3.07;;;15.10;99.90;;;;;;5119061;27;20574;-63
2024/03/16 11:15:32;;;;;;;3.30;3.00;;;15.20;99.90;;;;;;5136345;27;20450;-64
2024/03/16 11:18:23;;;;;;;5.63;2.97;;;15.20;99.90;;;;;;5137310;27;20447;-63
2024/03/16 11:20:53;;;;;;;6.10;3.23;;;15.10;99.90;;;;;;5118687;27;20499;-64
2024/03/16 11:23:21;;;;;;;4.03;3.40;;;15.00;99.90;;;;;;5119432;27;20447;-63
2024/03/16 11:25:48;;;;;;;4.37;3.17;;;14.90;99.90;;;;;;5119034;27;20532;-63
2024/03/16 11:28:15;;;;;;;3.40;3.10;;;15.00;99.90;;;;;;5119032;27;20448;-64
2024/03/16 11:30:41;;;;;;;6.30;3.00;;;15.10;99.90;;;;;;5118753;27;20446;-63
2024/03/16 11:33:13;;;;;;;3.50;3.20;;;15.30;99.90;;;;;;5118628;27;20445;-64
2024/03/16 11:35:41;;;;;;;3.23;2.90;;;15.40;99.90;;;;;;5118593;27;20441;-64
2024/03/16 11:38:07;;;;;;;4.90;3.50;;;15.50;99.90;;;;;;5118788;27;20446;-64
2024/03/16 11:40:34;;;;;;;5.10;3.80;;;15.70;99.90;;;;;;5118606;27;20446;-64
2024/03/16 11:43:00;;;;;;;10.20;3.93;;;15.60;99.90;;;;;;5118598;27;20444;-64
2024/03/16 11:45:26;;;;;;;4.53;3.60;;;15.60;99.90;;;;;;5118303;27;20501;-64
2024/03/16 11:47:52;;;;;;;3.53;3.20;;;15.40;99.90;;;;;;5118412;27;20951;-64
2024/03/16 11:50:19;;;;;;;3.93;3.33;;;15.30;99.90;;;;;;5118236;27;20456;-64
2024/03/16 11:52:45;;;;;;;6.60;3.93;;;15.40;99.90;;;;;;5118470;27;20222;-64
2024/03/16 11:55:13;;;;;;;3.63;3.33;;;15.40;99.90;;;;;;5118301;27;20506;-64
2024/03/16 11:57:39;;;;;;;3.10;2.90;;;15.40;99.90;;;;;;5118331;27;20238;-64
2024/03/16 12:00:12;;;;;;;3.10;2.90;;;15.30;99.90;;;;;;5118102;27;20512;-64
2024/03/16 12:02:38;;;;;;;4.13;3.70;;;15.10;99.90;;;;;;5118953;27;20447;-64
2024/03/16 12:05:05;;;;;;;3.33;3.07;;;14.90;99.90;;;;;;5117083;27;20804;-63
2024/03/16 12:07:31;;;;;;;4.83;3.60;;;14.70;99.90;;;;;;5118262;27;20524;-63
2024/03/16 12:09:58;;;;;;;3.90;3.50;;;14.60;99.90;;;;;;5117749;27;20563;-64
2024/03/16 12:12:24;;;;;;;4.30;3.37;;;14.40;99.90;;;;;;5117856;27;20585;-63
2024/03/16 12:15:14;;;;;;;3.47;3.27;;;14.40;99.90;;;;;;5117895;27;20509;-64
2024/03/16 12:17:40;;;;;;;3.70;3.40;;;14.30;99.90;;;;;;5134978;27;20504;-63
2024/03/16 12:20:08;;;;;;;3.63;3.30;;;13.90;99.90;;;;;;5117898;27;20832;-63
2024/03/16 12:22:34;;;;;;;4.50;3.07;;;13.70;99.90;;;;;;5117871;27;20448;-63
2024/03/16 12:25:00;;;;;;;2.70;2.50;;;13.60;99.90;;;;;;5117721;27;20532;-63
2024/03/16 12:27:27;;;;;;;3.07;2.40;;;13.60;99.90;;;;;;5117594;27;20453;-63
2024/03/16 12:29:55;;;;;;;2.70;2.50;;;13.40;99.90;;;;;;5117505;27;20437;-63
2024/03/16 12:32:22;;;;;;;3.17;2.93;;;13.20;99.90;;;;;;5117833;27;20525;-63
2024/03/16 12:34:47;;;;;;;3.20;3.00;;;12.90;99.90;;;;;;5117557;27;20441;-62
2024/03/16 12:37:14;;;;;;;3.40;3.10;;;12.90;99.90;;;;;;5117409;27;20875;-63
2024/03/16 12:39:40;;;;;;;3.77;3.40;;;12.90;99.90;;;;;;5117470;27;20273;-64
2024/03/16 12:42:07;;;;;;;5.90;3.53;;;12.80;99.90;;;;;;5117259;27;20453;-64
2024/03/16 12:44:33;;;;;;;3.63;3.33;;;12.90;99.90;;;;;;5117521;27;20852;-64
2024/03/16 12:47:00;;;;;;;3.00;2.80;;;12.90;99.90;;;;;;5117076;27;20468;-64
2024/03/16 12:49:26;;;;;;;3.73;3.43;;;12.90;99.90;;;;;;5117282;27;20526;-64